createdAt,value
2018-11-25T00:00:20.072Z,31.20
2018-11-25T00:02:48.599Z,28.63
2018-11-25T00:05:17.063Z,30.43
2018-11-25T00:07:45.890Z,34.77
2018-11-25T00:10:15.984Z,36.50
2018-11-25T00:12:44.793Z,36.87
2018-11-25T00:15:13.998Z,32.00
2018-11-25T00:17:44.062Z,31.47
2018-11-25T00:20:13.398Z,30.63
2018-11-25T00:22:42.219Z,29.53
2018-11-25T00:25:11.690Z,31.13
2018-11-25T00:27:40.145Z,31.57
2018-11-25T00:30:11.879Z,31.80
2018-11-25T00:32:40.649Z,30.97
2018-11-25T00:35:10.469Z,32.17
2018-11-25T00:37:39.266Z,32.93
2018-11-25T00:40:09.474Z,29.40
2018-11-25T00:42:38.043Z,30.97
2018-11-25T00:45:10.492Z,31.67
2018-11-25T00:47:39.837Z,28.70
2018-11-25T00:50:10.268Z,29.30
2018-11-25T00:52:39.170Z,29.90
2018-11-25T00:55:12.565Z,29.60
2018-11-25T00:57:41.035Z,31.30
2018-11-25T01:00:20.656Z,30.40
2018-11-25T01:02:50.060Z,28.73
2018-11-25T01:05:19.118Z,29.47
2018-11-25T01:07:47.537Z,32.27
2018-11-25T01:10:16.862Z,28.50
2018-11-25T01:12:45.685Z,27.67
2018-11-25T01:15:15.142Z,28.70
2018-11-25T01:17:43.747Z,28.07
2018-11-25T01:20:17.459Z,31.10
2018-11-25T01:22:46.419Z,32.23
2018-11-25T01:25:15.011Z,31.43
2018-11-25T01:27:43.474Z,31.00
2018-11-25T01:30:14.080Z,31.57
2018-11-25T01:32:43.641Z,32.47
2018-11-25T01:35:13.039Z,31.50
2018-11-25T01:37:41.572Z,30.50
2018-11-25T01:40:14.125Z,29.80
2018-11-25T01:42:42.635Z,31.10
2018-11-25T01:45:12.093Z,30.60
2018-11-25T01:47:40.635Z,30.93
2018-11-25T01:50:11.438Z,32.77
2018-11-25T01:52:39.906Z,31.40
2018-11-25T01:55:10.707Z,30.57
2018-11-25T01:57:40.141Z,30.60
2018-11-25T02:00:14.056Z,29.73
2018-11-25T02:02:43.162Z,31.30
2018-11-25T02:05:11.688Z,31.87
2018-11-25T02:07:40.148Z,37.67
2018-11-25T02:10:14.289Z,30.33
2018-11-25T02:12:42.802Z,32.00
2018-11-25T02:15:13.331Z,31.40
2018-11-25T02:17:41.770Z,30.93
2018-11-25T02:20:14.695Z,32.00
2018-11-25T02:22:43.227Z,31.00
2018-11-25T02:25:12.524Z,30.43
2018-11-25T02:27:40.952Z,31.83
2018-11-25T02:30:11.900Z,27.30
2018-11-25T02:32:40.366Z,29.80
2018-11-25T02:35:10.134Z,28.10
2018-11-25T02:37:39.514Z,28.43
2018-11-25T02:40:11.233Z,27.63
2018-11-25T02:42:41.183Z,27.57
2018-11-25T02:45:15.567Z,28.23
2018-11-25T02:47:44.881Z,27.57
2018-11-25T02:50:33.173Z,27.00
2018-11-25T02:53:06.715Z,26.60
2018-11-25T02:55:35.184Z,25.10
2018-11-25T02:58:03.656Z,24.00
2018-11-25T03:00:32.154Z,25.00
2018-11-25T03:03:00.574Z,25.67
2018-11-25T03:05:30.088Z,25.50
2018-11-25T03:07:58.568Z,23.43
2018-11-25T03:10:27.092Z,23.40
2018-11-25T03:12:55.524Z,23.50
2018-11-25T03:15:24.004Z,23.47
2018-11-25T03:17:52.453Z,22.80
2018-11-25T03:20:20.893Z,22.83
2018-11-25T03:22:49.328Z,24.20
2018-11-25T03:25:18.901Z,24.70
2018-11-25T03:27:47.456Z,24.73
2018-11-25T03:30:19.864Z,26.23
2018-11-25T03:32:49.298Z,24.93
2018-11-25T03:35:17.754Z,24.57
2018-11-25T03:37:46.541Z,25.20
2018-11-25T03:40:16.843Z,26.30
2018-11-25T03:42:45.309Z,25.30
2018-11-25T03:45:19.729Z,26.50
2018-11-25T03:47:48.847Z,24.20
2018-11-25T03:50:17.490Z,25.50
2018-11-25T03:52:46.051Z,26.13
2018-11-25T03:55:15.533Z,23.93
2018-11-25T03:57:44.118Z,25.20
2018-11-25T04:00:20.361Z,24.77
2018-11-25T04:02:49.516Z,25.90
2018-11-25T04:05:18.193Z,24.40
2018-11-25T04:07:47.033Z,24.60
2018-11-25T04:10:16.532Z,24.90
2018-11-25T04:12:45.341Z,24.70
2018-11-25T04:15:14.829Z,24.07
2018-11-25T04:17:43.358Z,25.20
2018-11-25T04:20:16.964Z,24.40
2018-11-25T04:22:45.687Z,25.03
2018-11-25T04:25:14.233Z,26.33
2018-11-25T04:27:43.446Z,26.20
2018-11-25T04:30:15.841Z,26.57
2018-11-25T04:32:45.252Z,24.93
2018-11-25T04:35:13.958Z,26.60
2018-11-25T04:37:42.360Z,27.27
2018-11-25T04:40:11.965Z,28.30
2018-11-25T04:42:40.442Z,29.97
2018-11-25T04:45:11.877Z,27.47
2018-11-25T04:47:40.425Z,28.87
2018-11-25T04:50:12.194Z,28.83
2018-11-25T04:52:41.192Z,28.10
2018-11-25T04:55:10.020Z,29.93
2018-11-25T04:57:38.420Z,30.60
2018-11-25T05:00:13.403Z,28.73
2018-11-25T05:02:42.226Z,28.63
2018-11-25T05:05:11.826Z,30.67
2018-11-25T05:07:40.346Z,28.87
2018-11-25T05:10:14.219Z,28.60
2018-11-25T05:12:43.319Z,28.90
2018-11-25T05:15:13.187Z,30.50
2018-11-25T05:17:41.617Z,29.63
2018-11-25T05:20:11.184Z,30.73
2018-11-25T05:22:39.589Z,28.57
2018-11-25T05:25:10.591Z,31.13
2018-11-25T05:27:38.993Z,30.70
2018-11-25T05:30:10.711Z,28.00
2018-11-25T05:32:39.155Z,30.30
2018-11-25T05:35:09.933Z,30.00
2018-11-25T05:37:38.404Z,28.83
2018-11-25T05:40:09.050Z,26.77
2018-11-25T05:42:37.481Z,28.17
2018-11-25T05:45:09.772Z,29.17
2018-11-25T05:47:38.467Z,27.90
2018-11-25T05:50:08.701Z,27.33
2018-11-25T05:52:37.225Z,29.53
2018-11-25T05:55:06.972Z,27.20
2018-11-25T05:57:35.505Z,27.67
2018-11-25T06:00:04.646Z,27.77
2018-11-25T06:02:33.067Z,25.60
2018-11-25T06:05:01.489Z,25.63
2018-11-25T06:07:29.931Z,25.77
2018-11-25T06:09:58.383Z,27.70
2018-11-25T06:12:26.810Z,26.10
2018-11-25T06:14:55.370Z,26.13
2018-11-25T06:17:23.781Z,26.97
2018-11-25T06:19:52.186Z,24.63
2018-11-25T06:22:20.629Z,24.00
2018-11-25T06:24:49.066Z,26.67
2018-11-25T06:27:17.501Z,24.80
2018-11-25T06:29:45.997Z,25.40
2018-11-25T06:32:14.405Z,25.23
2018-11-25T06:34:42.799Z,24.87
2018-11-25T06:37:12.034Z,23.80
2018-11-25T06:39:40.476Z,23.00
2018-11-25T06:42:08.912Z,24.53
2018-11-25T06:44:37.358Z,26.93
2018-11-25T06:47:06.229Z,21.83
2018-11-25T06:49:34.658Z,23.00
2018-11-25T06:52:03.091Z,28.10
2018-11-25T06:54:31.472Z,22.33
2018-11-25T06:57:00.063Z,23.20
2018-11-25T06:59:29.056Z,22.60
2018-11-25T07:01:57.698Z,21.63
2018-11-25T07:04:26.131Z,21.80
2018-11-25T07:06:54.571Z,22.50
2018-11-25T07:09:23.018Z,22.97
2018-11-25T07:11:51.446Z,21.80
2018-11-25T07:14:19.963Z,21.77
2018-11-25T07:16:48.439Z,21.20
2018-11-25T07:19:17.387Z,21.83
2018-11-25T07:21:45.860Z,21.90
2018-11-25T07:24:14.305Z,22.70
2018-11-25T07:26:42.962Z,22.70
2018-11-25T07:29:11.413Z,23.10
2018-11-25T07:31:39.839Z,22.50
2018-11-25T07:34:08.259Z,24.00
2018-11-25T07:36:36.695Z,25.63
2018-11-25T07:39:07.056Z,22.60
2018-11-25T07:41:35.570Z,24.63
2018-11-25T07:44:04.047Z,27.10
2018-11-25T07:46:32.534Z,25.03
2018-11-25T07:49:01.024Z,24.30
2018-11-25T07:51:29.486Z,24.70
2018-11-25T07:53:57.964Z,25.03
2018-11-25T07:56:26.389Z,25.13
2018-11-25T07:58:54.866Z,22.53
2018-11-25T08:01:23.401Z,24.53
2018-11-25T08:03:51.890Z,22.37
2018-11-25T08:06:20.332Z,21.20
2018-11-25T08:08:48.790Z,21.40
2018-11-25T08:11:17.538Z,20.17
2018-11-25T08:13:46.013Z,21.33
2018-11-25T08:16:14.434Z,22.27
2018-11-25T08:18:42.919Z,22.27
2018-11-25T08:21:11.356Z,22.40
2018-11-25T08:23:39.841Z,22.70
2018-11-25T08:26:08.265Z,21.30
2018-11-25T08:28:36.702Z,20.20
2018-11-25T08:31:05.329Z,20.70
2018-11-25T08:36:12.997Z,21.00
2018-11-25T08:38:41.472Z,22.47
2018-11-25T08:41:09.917Z,21.63
2018-11-25T08:43:38.461Z,20.97
2018-11-25T08:46:07.021Z,20.90
2018-11-25T08:48:35.424Z,20.07
2018-11-25T08:51:03.845Z,20.20
2018-11-25T08:53:32.277Z,20.80
2018-11-25T08:56:00.761Z,20.10
2018-11-25T08:58:29.194Z,19.67
2018-11-25T09:00:57.606Z,19.10
2018-11-25T09:03:26.106Z,18.23
2018-11-25T09:05:54.574Z,18.20
2018-11-25T09:08:23.019Z,19.30
2018-11-25T09:10:51.452Z,17.50
2018-11-25T09:13:19.890Z,21.23
2018-11-25T09:15:48.312Z,18.00
2018-11-25T09:18:16.727Z,18.50
2018-11-25T09:20:45.115Z,20.20
2018-11-25T09:23:14.128Z,17.27
2018-11-25T09:25:44.055Z,18.37
2018-11-25T09:28:13.367Z,20.23
2018-11-25T09:30:41.829Z,19.73
2018-11-25T09:33:10.365Z,20.30
2018-11-25T09:35:38.829Z,19.40
2018-11-25T09:38:07.252Z,19.67
2018-11-25T09:40:36.729Z,20.43
2018-11-25T09:43:05.197Z,21.33
2018-11-25T09:45:33.685Z,21.67
2018-11-25T09:48:02.946Z,21.30
2018-11-25T09:50:31.371Z,20.10
2018-11-25T09:52:59.779Z,21.97
2018-11-25T09:55:28.300Z,20.47
2018-11-25T09:57:59.126Z,21.77
2018-11-25T10:00:31.680Z,23.60
2018-11-25T10:03:00.129Z,23.67
2018-11-25T10:05:28.585Z,23.43
2018-11-25T10:07:57.085Z,23.23
2018-11-25T10:10:26.089Z,22.93
2018-11-25T10:12:54.798Z,21.43
2018-11-25T10:15:24.397Z,22.37
2018-11-25T10:17:59.457Z,23.47
2018-11-25T10:20:23.026Z,22.80
2018-11-25T10:22:51.498Z,21.10
2018-11-25T10:25:20.536Z,24.10
2018-11-25T10:27:49.062Z,20.40
2018-11-25T10:30:19.268Z,22.80
2018-11-25T10:32:50.469Z,23.60
2018-11-25T10:35:18.972Z,25.37
2018-11-25T10:37:47.469Z,23.23
2018-11-25T10:40:21.239Z,23.10
2018-11-25T10:42:49.835Z,23.83
2018-11-25T10:45:20.973Z,22.70
2018-11-25T10:47:49.520Z,28.00
2018-11-25T10:50:19.020Z,23.57
2018-11-25T10:52:48.749Z,23.20
2018-11-25T10:55:18.241Z,21.67
2018-11-25T10:57:48.748Z,22.10
2018-11-25T11:00:23.878Z,21.90
2018-11-25T11:02:57.719Z,22.50
2018-11-25T11:05:31.375Z,21.23
2018-11-25T11:07:59.845Z,45.80
2018-11-25T11:10:28.992Z,30.13
2018-11-25T11:12:58.862Z,21.33
2018-11-25T11:15:26.654Z,23.27
2018-11-25T11:17:55.263Z,23.40
2018-11-25T11:20:25.690Z,24.23
2018-11-25T11:22:54.792Z,26.37
2018-11-25T11:25:23.335Z,23.10
2018-11-25T11:27:51.893Z,21.87
2018-11-25T11:30:20.512Z,22.00
2018-11-25T11:32:50.278Z,22.20
2018-11-25T11:35:18.789Z,23.07
2018-11-25T11:37:47.315Z,24.50
2018-11-25T11:40:16.532Z,23.07
2018-11-25T11:42:45.074Z,22.87
2018-11-25T11:45:15.849Z,24.53
2018-11-25T11:47:44.958Z,25.40
2018-11-25T11:50:17.353Z,23.20
2018-11-25T11:52:46.185Z,23.40
2018-11-25T11:55:16.084Z,23.43
2018-11-25T11:57:45.333Z,23.27
2018-11-25T12:00:21.336Z,23.80
2018-11-25T12:02:50.307Z,23.60
2018-11-25T12:05:19.210Z,25.77
2018-11-25T12:07:47.733Z,24.23
2018-11-25T12:10:17.354Z,22.70
2018-11-25T12:12:45.741Z,24.10
2018-11-25T12:15:20.753Z,24.43
2018-11-25T12:17:49.209Z,25.50
2018-11-25T12:20:21.263Z,23.80
2018-11-25T12:22:47.269Z,24.73
2018-11-25T12:25:16.921Z,23.50
2018-11-25T12:27:45.495Z,21.90
2018-11-25T12:30:15.802Z,22.50
2018-11-25T12:32:45.554Z,22.27
2018-11-25T12:35:15.317Z,24.77
2018-11-25T12:37:43.891Z,24.77
2018-11-25T12:40:16.516Z,24.00
2018-11-25T12:42:46.576Z,23.63
2018-11-25T12:45:16.210Z,22.50
2018-11-25T12:47:44.691Z,23.70
2018-11-25T12:50:17.004Z,24.90
2018-11-25T12:52:45.476Z,24.27
2018-11-25T12:55:15.389Z,22.90
2018-11-25T12:57:43.900Z,23.20
2018-11-25T13:00:37.416Z,22.90
2018-11-25T13:03:07.230Z,22.97
2018-11-25T13:05:35.703Z,23.63
2018-11-25T13:08:04.305Z,22.47
2018-11-25T13:10:32.788Z,22.23
2018-11-25T13:13:01.269Z,23.90
2018-11-25T13:15:30.056Z,23.43
2018-11-25T13:17:58.493Z,21.60
2018-11-25T13:20:26.911Z,22.43
2018-11-25T13:22:55.332Z,19.90
2018-11-25T13:25:23.799Z,20.83
2018-11-25T13:27:52.226Z,19.73
2018-11-25T13:30:25.698Z,18.07
2018-11-25T13:32:56.530Z,19.90
2018-11-25T13:35:25.981Z,30.60
2018-11-25T13:37:54.498Z,25.43
2018-11-25T13:40:23.002Z,21.80
2018-11-25T13:42:51.451Z,22.00
2018-11-25T13:45:20.009Z,20.33
2018-11-25T13:47:48.471Z,21.50
2018-11-25T13:50:16.919Z,19.97
2018-11-25T13:52:45.378Z,21.23
2018-11-25T13:55:17.110Z,20.57
2018-11-25T13:57:45.618Z,17.73
2018-11-25T14:00:26.978Z,18.53
2018-11-25T14:02:55.465Z,18.10
2018-11-25T14:05:23.876Z,17.50
2018-11-25T14:07:52.346Z,16.67
2018-11-25T14:10:27.624Z,16.60
2018-11-25T14:12:56.082Z,15.80
2018-11-25T14:15:25.502Z,13.77
2018-11-25T14:17:53.917Z,15.60
2018-11-25T14:20:23.394Z,17.70
2018-11-25T14:22:51.824Z,13.90
2018-11-25T14:25:21.420Z,13.67
2018-11-25T14:27:53.074Z,14.47
2018-11-25T14:30:24.311Z,13.60
2018-11-25T14:32:52.729Z,13.00
2018-11-25T14:35:21.197Z,12.53
2018-11-25T14:37:49.714Z,12.33
2018-11-25T14:40:19.468Z,11.67
2018-11-25T14:42:47.943Z,13.07
2018-11-25T14:45:17.414Z,11.80
2018-11-25T14:47:45.892Z,11.63
2018-11-25T14:50:15.845Z,11.50
2018-11-25T14:52:45.561Z,13.43
2018-11-25T14:55:15.627Z,11.70
2018-11-25T14:57:45.097Z,11.67
2018-11-25T15:00:16.045Z,11.03
2018-11-25T15:02:45.548Z,12.00
2018-11-25T15:05:20.665Z,13.57
2018-11-25T15:07:50.125Z,23.93
2018-11-25T15:10:18.584Z,13.43
2018-11-25T15:12:47.684Z,11.83
2018-11-25T15:15:17.283Z,12.60
2018-11-25T15:17:45.910Z,12.13
2018-11-25T15:20:16.540Z,13.00
2018-11-25T15:22:45.651Z,14.40
2018-11-25T15:25:18.182Z,14.40
2018-11-25T15:27:46.678Z,13.27
2018-11-25T15:30:15.266Z,14.80
2018-11-25T15:32:43.935Z,14.67
2018-11-25T15:35:13.139Z,14.23
2018-11-25T15:37:43.372Z,13.30
2018-11-25T15:40:16.744Z,13.50
2018-11-25T15:42:45.283Z,14.00
2018-11-25T15:45:14.515Z,15.90
2018-11-25T15:47:44.933Z,14.80
2018-11-25T15:50:15.395Z,13.93
2018-11-25T15:52:43.845Z,14.00
2018-11-25T15:55:14.445Z,13.47
2018-11-25T15:57:42.984Z,13.77
2018-11-25T16:00:14.278Z,15.40
2018-11-25T16:02:43.016Z,15.33
2018-11-25T16:05:13.110Z,30.80
2018-11-25T16:07:41.796Z,18.83
2018-11-25T16:10:12.300Z,14.07
2018-11-25T16:12:41.710Z,16.67
2018-11-25T16:15:11.757Z,16.47
2018-11-25T16:17:40.269Z,15.00
2018-11-25T16:20:13.994Z,13.83
2018-11-25T16:22:42.495Z,14.00
2018-11-25T16:25:16.972Z,14.30
2018-11-25T16:27:46.085Z,16.13
2018-11-25T16:30:14.849Z,16.90
2018-11-25T16:32:43.385Z,17.00
2018-11-25T16:35:12.107Z,14.30
2018-11-25T16:37:41.641Z,14.10
2018-11-25T16:40:12.701Z,14.90
2018-11-25T16:42:41.442Z,15.50
2018-11-25T16:45:13.204Z,16.80
2018-11-25T16:47:41.742Z,21.23
2018-11-25T16:50:11.724Z,21.87
2018-11-25T16:52:40.250Z,20.80
2018-11-25T16:55:11.125Z,14.30
2018-11-25T16:57:39.939Z,16.07
2018-11-25T17:00:18.209Z,28.53
2018-11-25T17:02:46.864Z,21.00
2018-11-25T17:05:18.749Z,17.70
2018-11-25T17:07:49.009Z,19.47
2018-11-25T17:10:17.499Z,18.93
2018-11-25T17:12:45.940Z,24.00
2018-11-25T17:15:17.296Z,20.73
2018-11-25T17:17:45.781Z,17.10
2018-11-25T17:20:14.233Z,19.30
2018-11-25T17:22:42.744Z,21.17
2018-11-25T17:25:12.875Z,19.03
2018-11-25T17:27:41.376Z,21.20
2018-11-25T17:30:11.668Z,16.50
2018-11-25T17:32:40.082Z,21.37
2018-11-25T17:35:12.012Z,24.30
2018-11-25T17:37:40.404Z,23.10
2018-11-25T17:40:09.822Z,24.10
2018-11-25T17:42:38.656Z,20.00
2018-11-25T17:45:09.055Z,24.30
2018-11-25T17:47:37.536Z,17.80
2018-11-25T17:50:11.377Z,18.13
2018-11-25T17:52:39.842Z,15.10
2018-11-25T17:55:10.175Z,19.40
2018-11-25T17:57:38.656Z,16.70
2018-11-25T18:00:47.220Z,28.67
2018-11-25T18:03:19.287Z,13.73
2018-11-25T18:05:47.714Z,13.87
2018-11-25T18:08:16.183Z,15.33
2018-11-25T18:10:44.657Z,14.20
2018-11-25T18:13:13.355Z,13.27
2018-11-25T18:15:41.883Z,13.60
2018-11-25T18:18:13.470Z,21.37
2018-11-25T18:20:52.618Z,16.70
2018-11-25T18:23:21.114Z,13.90
2018-11-25T18:25:49.569Z,12.90
2018-11-25T18:28:18.052Z,17.73
2018-11-25T18:30:46.554Z,13.60
2018-11-25T18:33:14.984Z,11.70
2018-11-25T18:35:43.453Z,13.63
2018-11-25T18:38:12.705Z,12.93
2018-11-25T18:40:42.126Z,13.53
2018-11-25T18:43:10.606Z,14.73
2018-11-25T18:45:39.596Z,12.90
2018-11-25T18:48:11.945Z,16.40
2018-11-25T18:50:40.391Z,14.13
2018-11-25T18:53:09.982Z,11.90
2018-11-25T18:55:37.219Z,15.30
2018-11-25T18:58:06.791Z,29.30
2018-11-25T19:00:38.140Z,18.10
2018-11-25T19:03:06.696Z,15.50
2018-11-25T19:05:35.198Z,14.00
2018-11-25T19:08:03.702Z,13.80
2018-11-25T19:10:32.176Z,14.13
2018-11-25T19:13:00.606Z,17.07
2018-11-25T19:15:29.110Z,13.00
2018-11-25T19:17:57.933Z,16.33
2018-11-25T19:20:27.431Z,14.50
2018-11-25T19:22:56.643Z,12.50
2018-11-25T19:25:25.613Z,13.70
2018-11-25T19:27:54.816Z,14.40
2018-11-25T19:30:26.662Z,13.13
2018-11-25T19:32:52.967Z,12.33
2018-11-25T19:35:22.432Z,13.17
2018-11-25T19:37:51.985Z,12.57
2018-11-25T19:40:25.499Z,11.80
2018-11-25T19:42:54.760Z,11.97
2018-11-25T19:45:26.280Z,12.47
2018-11-25T19:47:55.585Z,18.70
2018-11-25T19:50:33.791Z,12.67
2018-11-25T19:53:03.180Z,14.00
2018-11-25T19:55:32.606Z,14.93
2018-11-25T19:58:01.175Z,14.20
2018-11-25T20:00:29.634Z,13.73
2018-11-25T20:02:58.131Z,15.03
2018-11-25T20:05:26.716Z,15.60
2018-11-25T20:07:55.399Z,15.40
2018-11-25T20:10:25.804Z,17.70
2018-11-25T20:12:55.717Z,16.00
2018-11-25T20:15:24.254Z,20.33
2018-11-25T20:17:54.376Z,22.70
2018-11-25T20:20:23.820Z,19.70
2018-11-25T20:22:52.974Z,13.40
2018-11-25T20:25:21.534Z,15.77
2018-11-25T20:27:53.354Z,14.20
2018-11-25T20:30:23.115Z,14.90
2018-11-25T20:32:56.758Z,13.60
2018-11-25T20:35:25.319Z,12.43
2018-11-25T20:37:59.525Z,15.00
2018-11-25T20:40:28.880Z,14.20
2018-11-25T20:42:57.552Z,14.90
2018-11-25T20:45:38.587Z,14.60
2018-11-25T20:48:00.690Z,29.20
2018-11-25T20:50:29.154Z,22.93
2018-11-25T20:53:02.906Z,17.90
2018-11-25T20:55:31.375Z,14.57
2018-11-25T20:57:59.821Z,14.73
2018-11-25T21:00:29.933Z,14.80
2018-11-25T21:02:58.497Z,25.10
2018-11-25T21:05:27.471Z,16.07
2018-11-25T21:07:56.033Z,14.87
2018-11-25T21:10:26.207Z,15.57
2018-11-25T21:12:55.544Z,15.80
2018-11-25T21:15:24.486Z,16.80
2018-11-25T21:17:53.003Z,27.70
2018-11-25T21:20:24.030Z,20.37
2018-11-25T21:22:52.454Z,27.00
2018-11-25T21:25:22.106Z,29.37
2018-11-25T21:27:50.604Z,16.13
2018-11-25T21:30:24.328Z,15.00
2018-11-25T21:32:54.128Z,16.67
2018-11-25T21:35:22.566Z,16.93
2018-11-25T21:37:51.066Z,15.03
2018-11-25T21:40:22.923Z,15.53
2018-11-25T21:42:51.516Z,15.17
2018-11-25T21:45:22.041Z,16.90
2018-11-25T21:47:51.201Z,16.20
2018-11-25T21:50:23.436Z,15.23
2018-11-25T21:52:55.462Z,16.13
2018-11-25T21:55:24.286Z,17.20
2018-11-25T21:57:52.751Z,15.07
2018-11-25T22:00:25.334Z,15.50
2018-11-25T22:02:53.784Z,18.27
2018-11-25T22:05:24.868Z,17.30
2018-11-25T22:07:51.276Z,18.60
2018-11-25T22:10:20.724Z,17.17
2018-11-25T22:12:49.588Z,26.00
2018-11-25T22:15:19.172Z,18.60
2018-11-25T22:17:48.588Z,18.07
2018-11-25T22:20:17.444Z,18.70
2018-11-25T22:22:46.222Z,17.80
2018-11-25T22:25:16.781Z,18.47
2018-11-25T22:27:45.493Z,22.70
2018-11-25T22:30:19.145Z,21.17
2018-11-25T22:32:47.654Z,20.30
2018-11-25T22:35:18.275Z,18.63
2018-11-25T22:37:46.769Z,18.30
2018-11-25T22:40:16.558Z,17.63
2018-11-25T22:42:46.074Z,17.70
2018-11-25T22:45:17.874Z,17.70
2018-11-25T22:47:46.434Z,18.60
2018-11-25T22:50:17.675Z,17.53
2018-11-25T22:52:46.228Z,18.30
2018-11-25T22:55:17.256Z,19.10
2018-11-25T22:57:45.778Z,18.03
2018-11-25T23:00:21.018Z,18.33
2018-11-25T23:02:49.487Z,16.80
2018-11-25T23:05:29.009Z,20.00
2018-11-25T23:07:57.988Z,18.90
2018-11-25T23:10:26.704Z,20.23
2018-11-25T23:12:55.203Z,19.57
2018-11-25T23:15:23.673Z,19.03
2018-11-25T23:17:53.547Z,17.80
2018-11-25T23:20:22.034Z,18.97
2018-11-25T23:22:50.458Z,18.13
2018-11-25T23:25:19.162Z,19.63
2018-11-25T23:27:47.865Z,20.67
2018-11-25T23:30:16.372Z,18.03
2018-11-25T23:32:44.868Z,19.83
2018-11-25T23:35:23.305Z,18.83
2018-11-25T23:37:51.872Z,20.70
2018-11-25T23:40:20.367Z,19.43
2018-11-25T23:42:48.840Z,19.93
2018-11-25T23:45:17.637Z,20.87
2018-11-25T23:47:46.762Z,21.33
2018-11-25T23:50:15.594Z,19.90
2018-11-25T23:52:45.461Z,21.27
2018-11-25T23:55:16.049Z,20.03
2018-11-25T23:57:44.537Z,19.93
